Time;durP1;ratioP1;P1;durP2;ratioP2;P2;SDS_P1;SDS_P2;PMS_P1;PMS_P2;Temp;Humidity;BMP_temperature;BMP_pressure;BME280_temperature;BME280_humidity;BME280_pressure;Samples;Min_cycle;Max_cycle;Signal;HPM_P1;HPM_P2
2023/07/29 00:01:40;;;;;;;;;;;22.00;78.90;;;;;;5009556;28;20008;-53
2023/07/29 00:04:06;;;;;;;;;;;22.00;79.30;;;;;;5009358;28;20289;-53
2023/07/29 00:06:31;;;;;;;;;;;22.10;79.60;;;;;;5012334;28;19921;-53
2023/07/29 00:08:57;;;;;;;;;;;22.00;79.10;;;;;;5027428;28;19972;-53
2023/07/29 00:11:22;;;;;;;;;;;22.00;79.40;;;;;;5029168;28;20421;-53
2023/07/29 00:13:50;;;;;;;;;;;22.00;79.60;;;;;;5028218;28;20407;-54
2023/07/29 00:16:16;;;;;;;;;;;22.00;79.60;;;;;;5027196;28;19940;-54
2023/07/29 00:18:43;;;;;;;;;;;22.00;79.20;;;;;;5028725;28;19909;-53
2023/07/29 00:21:08;;;;;;;;;;;22.00;79.60;;;;;;5029030;28;19909;-53
2023/07/29 00:23:34;;;;;;;;;;;22.00;79.70;;;;;;5027555;28;19924;-53
2023/07/29 00:25:59;;;;;;;;;;;22.00;79.80;;;;;;5028801;28;19917;-53
2023/07/29 00:28:24;;;;;;;;;;;22.00;79.70;;;;;;5027841;28;19922;-53
2023/07/29 00:30:50;;;;;;;;;;;22.00;79.70;;;;;;5022799;28;19919;-54
2023/07/29 00:33:16;;;;;;;;;;;22.00;79.70;;;;;;5028353;28;19917;-53
2023/07/29 00:35:41;;;;;;;;;;;22.00;79.50;;;;;;5028615;28;19909;-53
2023/07/29 00:38:06;;;;;;;;;;;22.00;79.80;;;;;;5040005;28;19920;-54
2023/07/29 00:40:32;;;;;;;;;;;22.00;79.50;;;;;;5048284;28;19924;-54
2023/07/29 00:42:57;;;;;;;;;;;22.00;79.40;;;;;;5035542;28;19910;-55
2023/07/29 00:45:23;;;;;;;;;;;22.00;79.60;;;;;;5024597;28;19920;-53
2023/07/29 00:47:48;;;;;;;;;;;22.00;79.60;;;;;;5033020;28;19932;-53
2023/07/29 00:50:15;;;;;;;;;;;22.00;79.80;;;;;;5048257;28;19913;-54
2023/07/29 00:52:41;;;;;;;;;;;22.00;79.90;;;;;;5045493;28;20358;-53
2023/07/29 00:55:06;;;;;;;;;;;22.00;79.90;;;;;;5051537;28;19982;-53
2023/07/29 00:57:32;;;;;;;;;;;22.00;79.80;;;;;;5045029;28;20348;-53
2023/07/29 00:59:57;;;;;;;;;;;22.00;79.60;;;;;;5039705;28;20365;-53
2023/07/29 01:02:23;;;;;;;;;;;22.00;79.90;;;;;;5016761;28;20365;-54
2023/07/29 01:04:54;;;;;;;;;;;22.00;79.70;;;;;;5032490;28;19999;-53
2023/07/29 01:07:35;;;;;;;;;;;22.00;79.90;;;;;;5016970;28;19921;-53
2023/07/29 01:10:01;;;;;;;;;;;22.00;80.10;;;;;;5034329;28;20387;-53
2023/07/29 01:12:28;;;;;;;;;;;21.90;80.00;;;;;;5014430;28;19913;-54
2023/07/29 01:15:06;;;;;;;;;;;21.90;79.80;;;;;;5016842;28;19996;-53
2023/07/29 01:17:36;;;;;;;;;;;21.90;80.00;;;;;;5034172;28;20361;-55
2023/07/29 01:20:05;;;;;;;;;;;22.00;79.70;;;;;;5036832;28;19913;-54
2023/07/29 01:22:34;;;;;;;;;;;21.90;79.70;;;;;;5036132;28;19928;-53
2023/07/29 01:24:59;;;;;;;;;;;21.90;79.90;;;;;;5048133;28;20365;-53
2023/07/29 01:27:25;;;;;;;;;;;21.90;80.10;;;;;;5025612;28;19924;-53
2023/07/29 01:29:51;;;;;;;;;;;21.90;79.70;;;;;;5014443;28;19913;-53
2023/07/29 01:32:17;;;;;;;;;;;21.90;80.20;;;;;;5029256;28;20288;-54
2023/07/29 01:35:02;;;;;;;;;;;21.90;79.90;;;;;;5013549;28;19921;-53
2023/07/29 01:37:27;;;;;;;;;;;21.90;80.00;;;;;;5028374;28;19953;-54
2023/07/29 01:39:54;;;;;;;;;;;21.90;80.50;;;;;;5031851;28;20376;-54
2023/07/29 01:42:20;;;;;;;;;;;21.90;79.70;;;;;;5034030;28;19917;-54
2023/07/29 01:44:45;;;;;;;;;;;21.90;79.90;;;;;;5032134;28;20377;-53
2023/07/29 01:47:11;;;;;;;;;;;21.90;79.90;;;;;;5033439;28;19920;-53
2023/07/29 01:49:36;;;;;;;;;;;21.90;80.10;;;;;;5031223;28;19913;-53
2023/07/29 01:52:02;;;;;;;;;;;21.90;79.90;;;;;;5032505;28;20412;-53
2023/07/29 01:54:28;;;;;;;;;;;21.90;80.00;;;;;;5030561;28;20396;-53
2023/07/29 01:56:53;;;;;;;;;;;21.90;79.70;;;;;;5033827;28;19913;-55
2023/07/29 01:59:18;;;;;;;;;;;21.90;80.40;;;;;;5038215;28;19912;-53
2023/07/29 02:01:46;;;;;;;;;;;21.90;80.70;;;;;;5053528;28;19992;-53
2023/07/29 02:04:11;;;;;;;;;;;21.80;80.60;;;;;;5053394;28;19962;-53
2023/07/29 02:06:37;;;;;;;;;;;21.80;80.60;;;;;;5040593;28;19921;-53
2023/07/29 02:09:04;;;;;;;;;;;21.90;80.30;;;;;;5015499;28;19925;-53
2023/07/29 02:11:29;;;;;;;;;;;21.90;80.20;;;;;;5031489;28;19967;-53
2023/07/29 02:13:55;;;;;;;;;;;21.90;80.10;;;;;;5032636;28;19909;-53
2023/07/29 02:16:21;;;;;;;;;;;21.90;80.20;;;;;;5015620;28;19917;-53
2023/07/29 02:18:46;;;;;;;;;;;21.90;80.20;;;;;;5033426;28;20004;-53
2023/07/29 02:21:12;;;;;;;;;;;21.80;80.60;;;;;;5032723;28;19913;-53
2023/07/29 02:23:37;;;;;;;;;;;21.80;80.40;;;;;;5033146;28;20262;-53
2023/07/29 02:26:02;;;;;;;;;;;21.90;80.70;;;;;;5030196;28;19944;-53
2023/07/29 02:28:28;;;;;;;;;;;21.80;81.10;;;;;;5032264;28;19936;-53
2023/07/29 02:31:08;;;;;;;;;;;21.80;80.90;;;;;;5033428;28;19952;-53
2023/07/29 02:33:34;;;;;;;;;;;21.90;80.70;;;;;;5032939;28;19924;-54
2023/07/29 02:35:59;;;;;;;;;;;21.90;81.00;;;;;;5032746;28;19913;-53
2023/07/29 02:38:25;;;;;;;;;;;21.90;81.50;;;;;;5032764;28;20018;-54
2023/07/29 02:40:50;;;;;;;;;;;21.90;82.40;;;;;;5032959;28;19917;-53
2023/07/29 02:43:15;;;;;;;;;;;21.80;82.40;;;;;;5032157;28;19910;-53
2023/07/29 02:45:41;;;;;;;;;;;21.80;81.80;;;;;;5032724;28;19910;-53
2023/07/29 02:48:06;;;;;;;;;;;21.80;81.60;;;;;;5044111;28;19928;-55
2023/07/29 02:50:34;;;;;;;;;;;21.80;82.30;;;;;;5037458;28;19924;-53
2023/07/29 02:52:59;;;;;;;;;;;21.80;81.20;;;;;;5030710;28;19913;-53
2023/07/29 02:55:25;;;;;;;;;;;21.80;81.20;;;;;;5032811;28;19909;-53
2023/07/29 02:57:50;;;;;;;;;;;21.80;81.50;;;;;;5030327;28;19963;-53
2023/07/29 03:00:16;;;;;;;;;;;21.80;81.10;;;;;;5045527;28;19913;-53
2023/07/29 03:02:41;;;;;;;;;;;21.80;81.90;;;;;;5041757;28;19913;-54
2023/07/29 03:05:07;;;;;;;;;;;21.90;82.00;;;;;;5038263;28;20043;-53
2023/07/29 03:07:32;;;;;;;;;;;21.80;81.60;;;;;;5013489;28;19959;-53
2023/07/29 03:09:58;;;;;;;;;;;21.80;82.10;;;;;;5027803;28;19913;-53
2023/07/29 03:12:23;;;;;;;;;;;21.80;82.30;;;;;;5031938;28;19909;-53
2023/07/29 03:14:49;;;;;;;;;;;21.80;81.50;;;;;;5032129;28;19910;-54
2023/07/29 03:17:14;;;;;;;;;;;21.90;82.00;;;;;;5032295;28;20559;-53
2023/07/29 03:19:40;;;;;;;;;;;21.80;81.70;;;;;;5038302;28;19921;-53
2023/07/29 03:22:05;;;;;;;;;;;21.80;82.10;;;;;;5029380;28;19921;-55
2023/07/29 03:24:31;;;;;;;;;;;21.80;82.30;;;;;;5030855;28;20381;-53
2023/07/29 03:26:56;;;;;;;;;;;21.80;83.00;;;;;;5032228;28;19967;-53
2023/07/29 03:29:21;;;;;;;;;;;21.80;82.00;;;;;;5013766;28;19913;-53
2023/07/29 03:31:47;;;;;;;;;;;21.90;81.70;;;;;;5031948;28;19956;-53
2023/07/29 03:34:13;;;;;;;;;;;21.80;82.30;;;;;;5032028;28;19925;-53
2023/07/29 03:36:38;;;;;;;;;;;21.80;82.00;;;;;;5028873;28;19917;-53
2023/07/29 03:39:03;;;;;;;;;;;21.80;82.50;;;;;;5029183;28;20365;-54
2023/07/29 03:41:29;;;;;;;;;;;21.80;82.70;;;;;;5034746;28;19915;-53
2023/07/29 03:43:54;;;;;;;;;;;21.80;82.80;;;;;;5050612;28;19959;-53
2023/07/29 03:46:21;;;;;;;;;;;21.80;83.30;;;;;;5038343;28;19932;-53
2023/07/29 03:48:47;;;;;;;;;;;21.80;83.00;;;;;;5049766;28;19925;-58
2023/07/29 03:51:12;;;;;;;;;;;21.70;82.90;;;;;;5027970;28;20181;-54
2023/07/29 03:53:38;;;;;;;;;;;21.70;83.50;;;;;;5031387;28;19980;-53
2023/07/29 03:56:03;;;;;;;;;;;21.70;83.40;;;;;;5041090;28;19952;-54
2023/07/29 03:58:29;;;;;;;;;;;21.70;83.60;;;;;;5050839;28;19909;-54
2023/07/29 04:00:54;;;;;;;;;;;21.70;83.80;;;;;;5051829;28;19916;-54
2023/07/29 04:03:20;;;;;;;;;;;21.70;84.00;;;;;;5042369;28;19963;-53
2023/07/29 04:05:45;;;;;;;;;;;21.70;83.10;;;;;;5030428;28;19909;-53
2023/07/29 04:08:10;;;;;;;;;;;21.70;83.00;;;;;;5030985;28;19917;-53
2023/07/29 04:10:37;;;;;;;;;;;21.70;83.10;;;;;;5029567;28;19920;-53
2023/07/29 04:13:03;;;;;;;;;;;21.70;84.20;;;;;;5031007;28;20332;-54
2023/07/29 04:15:29;;;;;;;;;;;21.70;82.80;;;;;;5050704;28;19913;-53
2023/07/29 04:17:55;;;;;;;;;;;21.80;82.60;;;;;;5040704;28;19925;-54
2023/07/29 04:20:20;;;;;;;;;;;21.70;82.40;;;;;;5029705;28;19913;-53
2023/07/29 04:22:45;;;;;;;;;;;21.70;82.30;;;;;;5031456;28;20394;-53
2023/07/29 04:25:12;;;;;;;;;;;21.70;83.40;;;;;;5032167;28;19909;-53
2023/07/29 04:27:38;;;;;;;;;;;21.70;83.20;;;;;;5029358;28;19917;-55
2023/07/29 04:30:04;;;;;;;;;;;21.70;82.80;;;;;;5031590;28;20398;-53
2023/07/29 04:32:29;;;;;;;;;;;21.70;83.40;;;;;;5028371;28;19947;-54
2023/07/29 04:34:55;;;;;;;;;;;21.70;82.70;;;;;;5032839;28;20369;-54
2023/07/29 04:37:20;;;;;;;;;;;21.80;83.50;;;;;;5038147;28;20012;-54
2023/07/29 04:39:46;;;;;;;;;;;21.70;84.00;;;;;;5053517;28;20004;-53
2023/07/29 04:42:12;;;;;;;;;;;21.80;83.60;;;;;;5035229;28;19909;-53
2023/07/29 04:44:37;;;;;;;;;;;21.70;82.90;;;;;;5034386;28;19999;-54
2023/07/29 04:47:03;;;;;;;;;;;21.70;83.30;;;;;;5031200;28;20373;-53
2023/07/29 04:49:28;;;;;;;;;;;21.70;82.50;;;;;;5025756;28;19921;-53
2023/07/29 04:51:54;;;;;;;;;;;21.80;83.40;;;;;;5034646;28;20360;-54
2023/07/29 04:54:20;;;;;;;;;;;21.70;83.00;;;;;;5034754;28;20290;-53
2023/07/29 04:56:46;;;;;;;;;;;21.70;82.90;;;;;;5016214;28;19910;-53
2023/07/29 04:59:12;;;;;;;;;;;21.70;83.30;;;;;;5039833;28;19912;-54
2023/07/29 05:01:38;;;;;;;;;;;21.70;83.70;;;;;;5038093;28;20215;-53
2023/07/29 05:04:04;;;;;;;;;;;21.80;83.70;;;;;;5027220;28;19920;-54
2023/07/29 05:06:29;;;;;;;;;;;21.80;83.90;;;;;;5034776;28;19909;-53
2023/07/29 05:08:56;;;;;;;;;;;21.70;83.20;;;;;;5034418;28;19920;-53
2023/07/29 05:11:22;;;;;;;;;;;21.70;83.20;;;;;;5033368;28;19917;-53
2023/07/29 05:13:47;;;;;;;;;;;21.70;83.50;;;;;;5034813;28;19923;-53
2023/07/29 05:16:12;;;;;;;;;;;21.70;83.10;;;;;;5030692;28;19922;-53
2023/07/29 05:18:38;;;;;;;;;;;21.70;84.00;;;;;;5032830;28;20308;-53
2023/07/29 05:21:03;;;;;;;;;;;21.70;83.80;;;;;;5034498;28;19956;-54
2023/07/29 05:23:29;;;;;;;;;;;21.70;83.90;;;;;;5042450;28;19912;-53
2023/07/29 05:25:54;;;;;;;;;;;21.70;83.40;;;;;;5039914;28;20008;-53
2023/07/29 05:28:20;;;;;;;;;;;21.70;84.10;;;;;;5033404;28;20008;-53
2023/07/29 05:30:45;;;;;;;;;;;21.80;83.80;;;;;;5031436;28;19914;-53
2023/07/29 05:33:11;;;;;;;;;;;21.80;84.90;;;;;;5032831;28;19914;-53
2023/07/29 05:35:36;;;;;;;;;;;21.70;84.40;;;;;;5041242;28;19920;-54
2023/07/29 05:38:03;;;;;;;;;;;21.70;85.20;;;;;;5053875;28;19919;-53
2023/07/29 05:40:28;;;;;;;;;;;21.70;85.20;;;;;;5046734;28;20027;-53
2023/07/29 05:42:54;;;;;;;;;;;21.70;85.50;;;;;;5033397;28;19927;-53
2023/07/29 05:45:20;;;;;;;;;;;21.70;84.60;;;;;;5031584;28;19917;-53
2023/07/29 05:47:45;;;;;;;;;;;21.70;85.20;;;;;;5037069;28;19921;-53
2023/07/29 05:50:11;;;;;;;;;;;21.70;85.30;;;;;;5032910;28;19935;-54
2023/07/29 05:52:36;;;;;;;;;;;21.70;85.30;;;;;;5033348;28;19945;-53
2023/07/29 05:55:02;;;;;;;;;;;21.70;84.60;;;;;;5018768;28;19917;-54
2023/07/29 05:57:27;;;;;;;;;;;21.70;85.30;;;;;;5032929;28;19921;-53
2023/07/29 05:59:53;;;;;;;;;;;21.70;84.90;;;;;;4997792;28;20004;-54
2023/07/29 06:02:18;;;;;;;;;;;21.70;84.90;;;;;;5023160;28;19920;-54
2023/07/29 06:04:44;;;;;;;;;;;21.70;85.20;;;;;;5029997;28;20365;-53
2023/07/29 06:07:09;;;;;;;;;;;21.70;85.70;;;;;;5033445;28;20387;-54
2023/07/29 06:09:35;;;;;;;;;;;21.70;86.10;;;;;;5016656;28;19917;-53
2023/07/29 06:12:00;;;;;;;;;;;21.70;86.20;;;;;;5033434;28;19913;-53
2023/07/29 06:14:26;;;;;;;;;;;21.70;85.60;;;;;;5030010;28;19921;-53
2023/07/29 06:16:51;;;;;;;;;;;21.70;85.60;;;;;;5030628;28;20003;-53
2023/07/29 06:19:17;;;;;;;;;;;21.70;85.90;;;;;;5025625;28;20294;-53
2023/07/29 06:21:43;;;;;;;;;;;21.70;85.90;;;;;;5014218;28;19913;-53
2023/07/29 06:24:08;;;;;;;;;;;21.70;86.20;;;;;;5039804;28;19913;-54
2023/07/29 06:26:33;;;;;;;;;;;21.70;86.30;;;;;;5031233;28;20011;-53
2023/07/29 06:28:59;;;;;;;;;;;21.70;85.80;;;;;;5032210;28;19913;-53
2023/07/29 06:31:24;;;;;;;;;;;21.70;85.40;;;;;;5030282;28;19913;-53
2023/07/29 06:33:50;;;;;;;;;;;21.70;85.30;;;;;;5031756;28;19913;-53
2023/07/29 06:36:15;;;;;;;;;;;21.70;85.50;;;;;;5028741;28;19913;-54
2023/07/29 06:38:41;;;;;;;;;;;21.70;85.30;;;;;;5032690;28;19920;-53
2023/07/29 06:41:07;;;;;;;;;;;21.70;85.40;;;;;;5045469;28;19909;-53
2023/07/29 06:43:32;;;;;;;;;;;21.70;86.50;;;;;;5042062;28;19913;-53
2023/07/29 06:45:58;;;;;;;;;;;21.70;86.50;;;;;;5030102;28;19948;-53
2023/07/29 06:48:23;;;;;;;;;;;21.70;85.90;;;;;;5031649;28;19925;-53
2023/07/29 06:50:50;;;;;;;;;;;21.70;85.90;;;;;;5032795;28;19913;-53
2023/07/29 06:53:15;;;;;;;;;;;21.70;86.10;;;;;;5032355;28;19948;-53
2023/07/29 06:55:41;;;;;;;;;;;21.70;86.40;;;;;;5032436;28;20411;-54
2023/07/29 06:58:06;;;;;;;;;;;21.70;86.20;;;;;;5010123;28;19955;-53
2023/07/29 07:00:32;;;;;;;;;;;21.70;85.60;;;;;;5031376;28;19917;-53
2023/07/29 07:02:57;;;;;;;;;;;21.70;86.60;;;;;;5032408;28;19913;-53
2023/07/29 07:05:23;;;;;;;;;;;21.70;86.20;;;;;;5032532;28;19977;-53
2023/07/29 07:07:48;;;;;;;;;;;21.70;86.10;;;;;;5040551;28;20019;-53
2023/07/29 07:10:14;;;;;;;;;;;21.70;85.80;;;;;;5013080;28;20293;-54
2023/07/29 07:12:39;;;;;;;;;;;21.70;86.60;;;;;;5024559;28;20884;-54
2023/07/29 07:15:05;;;;;;;;;;;21.70;86.40;;;;;;5032318;28;19909;-53
2023/07/29 07:17:30;;;;;;;;;;;21.70;86.50;;;;;;5031785;28;19909;-53
2023/07/29 07:19:56;;;;;;;;;;;21.70;86.60;;;;;;5032377;28;19909;-53
2023/07/29 07:22:21;;;;;;;;;;;21.70;87.70;;;;;;5032129;28;19966;-53
2023/07/29 07:24:46;;;;;;;;;;;21.80;87.30;;;;;;5031712;28;19989;-54
2023/07/29 07:27:12;;;;;;;;;;;21.70;86.60;;;;;;5029251;28;19917;-53
2023/07/29 07:29:37;;;;;;;;;;;21.70;87.40;;;;;;5029246;28;19925;-54
2023/07/29 07:32:03;;;;;;;;;;;21.70;87.00;;;;;;5029962;28;19921;-54
2023/07/29 07:34:28;;;;;;;;;;;21.70;88.00;;;;;;5014329;28;19909;-53
2023/07/29 07:36:54;;;;;;;;;;;21.70;88.40;;;;;;5028617;28;19913;-53
2023/07/29 07:39:19;;;;;;;;;;;21.70;87.60;;;;;;5031030;28;20372;-55
2023/07/29 07:41:45;;;;;;;;;;;21.70;87.40;;;;;;5031058;28;19913;-53
2023/07/29 07:44:12;;;;;;;;;;;21.70;88.30;;;;;;5031116;28;20348;-55
2023/07/29 07:46:38;;;;;;;;;;;21.70;87.40;;;;;;5014127;28;19952;-53
2023/07/29 07:49:03;;;;;;;;;;;21.70;87.60;;;;;;5031500;28;19976;-53
2023/07/29 07:51:29;;;;;;;;;;;21.70;87.70;;;;;;5030943;28;19916;-54
2023/07/29 07:53:54;;;;;;;;;;;21.70;87.50;;;;;;5040303;28;19913;-54
2023/07/29 07:56:19;;;;;;;;;;;21.70;88.00;;;;;;5028511;28;20336;-54
2023/07/29 07:58:45;;;;;;;;;;;21.70;88.10;;;;;;5030570;28;20331;-53
2023/07/29 08:01:11;;;;;;;;;;;21.70;87.70;;;;;;5031840;28;20280;-54
2023/07/29 08:03:36;;;;;;;;;;;21.70;88.00;;;;;;5031648;28;20321;-53
2023/07/29 08:06:02;;;;;;;;;;;21.70;88.80;;;;;;5030458;28;20384;-54
2023/07/29 08:08:27;;;;;;;;;;;21.70;89.00;;;;;;5026433;28;19925;-53
2023/07/29 08:10:54;;;;;;;;;;;21.60;88.70;;;;;;5034455;28;20507;-53
2023/07/29 08:13:20;;;;;;;;;;;21.70;88.90;;;;;;5030839;28;20424;-53
2023/07/29 08:15:46;;;;;;;;;;;21.70;89.10;;;;;;5035561;28;19991;-53
2023/07/29 08:18:11;;;;;;;;;;;21.60;89.10;;;;;;5035458;28;19979;-53
2023/07/29 08:20:37;;;;;;;;;;;21.70;89.00;;;;;;5035339;28;20314;-54
2023/07/29 08:23:02;;;;;;;;;;;21.70;89.50;;;;;;5032716;28;20439;-54
2023/07/29 08:25:28;;;;;;;;;;;21.60;89.40;;;;;;5030532;28;20364;-53
2023/07/29 08:27:54;;;;;;;;;;;21.60;89.70;;;;;;5034670;28;19917;-53
2023/07/29 08:30:19;;;;;;;;;;;21.70;89.70;;;;;;5035469;28;19928;-53
2023/07/29 08:32:45;;;;;;;;;;;21.60;89.60;;;;;;5035101;28;19967;-53
2023/07/29 08:35:10;;;;;;;;;;;21.60;89.60;;;;;;5032480;28;19914;-53
2023/07/29 08:37:35;;;;;;;;;;;21.60;89.80;;;;;;5033971;28;19913;-55
2023/07/29 08:40:01;;;;;;;;;;;21.70;89.90;;;;;;5031812;28;19992;-53
2023/07/29 08:42:28;;;;;;;;;;;21.70;89.30;;;;;;5033639;28;19936;-53
2023/07/29 08:44:54;;;;;;;;;;;21.70;89.40;;;;;;5035064;28;19920;-53
2023/07/29 08:47:19;;;;;;;;;;;21.70;89.20;;;;;;5034856;28;19952;-53
2023/07/29 08:49:45;;;;;;;;;;;21.70;89.60;;;;;;5032884;28;19975;-53
2023/07/29 08:52:11;;;;;;;;;;;21.70;90.00;;;;;;5049224;28;20338;-53
2023/07/29 08:54:36;;;;;;;;;;;21.70;89.30;;;;;;5034462;28;19913;-53
2023/07/29 08:57:02;;;;;;;;;;;21.70;89.30;;;;;;5017233;28;19915;-53
2023/07/29 08:59:28;;;;;;;;;;;21.80;88.80;;;;;;5032538;28;19917;-53
2023/07/29 09:01:56;;;;;;;;;;;21.80;88.60;;;;;;5034949;28;20012;-53
2023/07/29 09:04:23;;;;;;;;;;;21.70;88.60;;;;;;5034527;28;19909;-53
2023/07/29 09:06:50;;;;;;;;;;;21.80;88.60;;;;;;5033167;28;19917;-54
2023/07/29 09:09:15;;;;;;;;;;;21.70;88.50;;;;;;5034405;28;20312;-54
2023/07/29 09:11:40;;;;;;;;;;;21.70;88.90;;;;;;5034490;28;19933;-53
2023/07/29 09:14:06;;;;;;;;;;;21.80;88.90;;;;;;5032621;28;19957;-53
2023/07/29 09:16:32;;;;;;;;;;;21.70;88.80;;;;;;5034341;28;19909;-54
2023/07/29 09:18:58;;;;;;;;;;;21.80;88.50;;;;;;5034508;28;19909;-53
2023/07/29 09:21:24;;;;;;;;;;;21.80;89.00;;;;;;5031358;28;20319;-53
2023/07/29 09:23:50;;;;;;;;;;;21.80;88.10;;;;;;5032498;28;19952;-53
2023/07/29 09:26:21;;;;;;;;;;;21.80;88.30;;;;;;5034399;28;19955;-53
2023/07/29 09:28:50;;;;;;;;;;;21.80;88.00;;;;;;5031919;28;19947;-53
2023/07/29 09:31:21;;;;;;;;;;;21.80;87.60;;;;;;5043444;28;20384;-54
2023/07/29 09:33:47;;;;;;;;;;;21.90;87.40;;;;;;5042563;28;19910;-53
2023/07/29 09:36:13;;;;;;;;;;;21.90;87.40;;;;;;5032370;28;19923;-53
2023/07/29 09:38:39;;;;;;;;;;;21.90;87.40;;;;;;5016945;28;20336;-54
2023/07/29 09:41:04;;;;;;;;;;;21.90;87.40;;;;;;5034242;28;19913;-54
2023/07/29 09:43:30;;;;;;;;;;;21.90;87.20;;;;;;5015810;28;20335;-54
2023/07/29 09:45:59;;;;;;;;;;;21.90;87.00;;;;;;5031488;28;19921;-53
2023/07/29 09:48:24;;;;;;;;;;;21.90;87.00;;;;;;5033363;28;19921;-54
2023/07/29 09:50:50;;;;;;;;;;;21.90;86.90;;;;;;5032069;28;19920;-54
2023/07/29 09:53:15;;;;;;;;;;;21.90;86.90;;;;;;5033588;28;19913;-54
2023/07/29 09:55:45;;;;;;;;;;;21.90;86.90;;;;;;5021776;28;19975;-54
2023/07/29 09:58:11;;;;;;;;;;;22.00;86.70;;;;;;5052911;28;19916;-53
2023/07/29 10:00:38;;;;;;;;;;;22.00;86.50;;;;;;5039811;28;19914;-53
2023/07/29 10:03:03;;;;;;;;;;;22.10;86.90;;;;;;5030899;28;20136;-53
2023/07/29 10:05:29;;;;;;;;;;;22.10;86.60;;;;;;5030163;28;20286;-53
2023/07/29 10:07:55;;;;;;;;;;;22.10;86.20;;;;;;5039336;28;19917;-54
2023/07/29 10:10:20;;;;;;;;;;;22.10;85.80;;;;;;5016367;28;19917;-55
2023/07/29 10:12:46;;;;;;;;;;;22.10;85.60;;;;;;5033024;28;19913;-55
2023/07/29 10:15:11;;;;;;;;;;;22.10;85.80;;;;;;5040258;28;19913;-55
2023/07/29 10:17:37;;;;;;;;;;;22.20;85.80;;;;;;5032364;28;19920;-54
2023/07/29 10:20:03;;;;;;;;;;;22.20;85.20;;;;;;5024134;28;19921;-54
2023/07/29 10:22:29;;;;;;;;;;;22.20;85.00;;;;;;5033097;28;19916;-54
2023/07/29 10:24:57;;;;;;;;;;;22.20;84.90;;;;;;5015405;28;19936;-54
2023/07/29 10:27:22;;;;;;;;;;;22.20;84.70;;;;;;5046003;28;19917;-53
2023/07/29 10:29:48;;;;;;;;;;;22.20;84.30;;;;;;5014556;28;19924;-55
2023/07/29 10:32:13;;;;;;;;;;;22.20;84.40;;;;;;5019813;28;19921;-55
2023/07/29 10:34:39;;;;;;;;;;;22.20;84.20;;;;;;5029804;28;19968;-55
2023/07/29 10:37:04;;;;;;;;;;;22.20;84.20;;;;;;5031443;28;19919;-54
2023/07/29 10:39:42;;;;;;;;;;;22.20;83.90;;;;;;5044961;28;20003;-53
2023/07/29 10:42:07;;;;;;;;;;;22.20;83.90;;;;;;5038453;28;19913;-53
2023/07/29 10:44:39;;;;;;;;;;;22.20;83.70;;;;;;5032274;28;19913;-54
2023/07/29 10:47:11;;;;;;;;;;;22.20;83.70;;;;;;5031677;28;19967;-54
2023/07/29 10:49:37;;;;;;;;;;;22.20;83.20;;;;;;5028089;28;19928;-54
2023/07/29 10:52:02;;;;;;;;;;;22.20;82.70;;;;;;5018736;28;19917;-54
2023/07/29 10:54:28;;;;;;;;;;;22.30;82.60;;;;;;5029803;28;19970;-55
2023/07/29 10:56:53;;;;;;;;;;;22.20;82.60;;;;;;5031074;28;19952;-53
2023/07/29 10:59:22;;;;;;;;;;;22.20;82.30;;;;;;5020365;28;19920;-53
2023/07/29 11:01:56;;;;;;;;;;;22.20;82.50;;;;;;5031043;28;19917;-53
2023/07/29 11:04:29;;;;;;;;;;;22.20;82.50;;;;;;5031198;28;20292;-54
2023/07/29 11:07:03;;;;;;;;;;;22.20;82.50;;;;;;5031409;28;19917;-54
2023/07/29 11:09:44;;;;;;;;;;;22.20;82.20;;;;;;5012534;28;19917;-54
2023/07/29 11:12:27;;;;;;;;;;;22.20;82.20;;;;;;5026526;28;19913;-54
2023/07/29 11:14:53;;;;;;;;;;;22.20;81.90;;;;;;5032412;28;19913;-54
2023/07/29 11:17:18;;;;;;;;;;;22.20;81.70;;;;;;5042993;28;19913;-53
2023/07/29 11:19:44;;;;;;;;;;;22.30;81.90;;;;;;5032522;28;19961;-54
2023/07/29 11:22:10;;;;;;;;;;;22.20;81.30;;;;;;5032312;28;19909;-53
2023/07/29 11:24:35;;;;;;;;;;;22.20;81.20;;;;;;5032269;28;19913;-54
2023/07/29 11:27:00;;;;;;;;;;;22.30;81.10;;;;;;5028260;28;19913;-53
2023/07/29 11:29:26;;;;;;;;;;;22.30;81.10;;;;;;5031020;28;19959;-54
2023/07/29 11:31:52;;;;;;;;;;;22.30;81.10;;;;;;5026463;28;20059;-53
2023/07/29 11:34:20;;;;;;;;;;;22.30;81.10;;;;;;5012270;28;19917;-54
2023/07/29 11:36:46;;;;;;;;;;;22.20;80.80;;;;;;5029222;28;19917;-53
2023/07/29 11:39:11;;;;;;;;;;;22.30;81.10;;;;;;5030517;28;19920;-53
2023/07/29 11:41:37;;;;;;;;;;;22.20;81.00;;;;;;5022017;28;20385;-53
2023/07/29 11:44:02;;;;;;;;;;;22.20;81.00;;;;;;5020179;28;20052;-54
2023/07/29 11:46:28;;;;;;;;;;;22.30;80.70;;;;;;5022816;28;20258;-53
2023/07/29 11:48:54;;;;;;;;;;;22.30;80.40;;;;;;5039207;28;20288;-54
2023/07/29 11:51:19;;;;;;;;;;;22.40;80.40;;;;;;5028361;28;19941;-54
2023/07/29 11:53:44;;;;;;;;;;;22.50;80.00;;;;;;5029752;28;20026;-53
2023/07/29 11:56:10;;;;;;;;;;;22.50;79.80;;;;;;5031696;28;19913;-54
2023/07/29 11:58:36;;;;;;;;;;;22.60;79.30;;;;;;5026904;28;19916;-54
2023/07/29 12:01:03;;;;;;;;;;;22.60;79.10;;;;;;5028069;28;19920;-53
2023/07/29 12:03:28;;;;;;;;;;;22.60;79.40;;;;;;5028814;28;20269;-53
2023/07/29 12:05:53;;;;;;;;;;;22.60;79.20;;;;;;5032674;28;20015;-53
2023/07/29 12:08:19;;;;;;;;;;;22.60;79.20;;;;;;5031541;28;19920;-54
2023/07/29 12:10:44;;;;;;;;;;;22.60;79.00;;;;;;5031205;28;19909;-54
2023/07/29 12:13:10;;;;;;;;;;;22.60;79.00;;;;;;5028257;28;20317;-54
2023/07/29 12:15:37;;;;;;;;;;;22.60;78.80;;;;;;5031306;28;19990;-53
2023/07/29 12:18:03;;;;;;;;;;;22.70;78.30;;;;;;5030444;28;20426;-53
2023/07/29 12:20:29;;;;;;;;;;;22.70;78.30;;;;;;5028687;28;19913;-54
2023/07/29 12:22:55;;;;;;;;;;;22.70;78.00;;;;;;5022103;28;19920;-53
2023/07/29 12:25:20;;;;;;;;;;;22.80;77.80;;;;;;5029522;28;19921;-53
2023/07/29 12:27:46;;;;;;;;;;;22.70;77.00;;;;;;5029213;28;19994;-53
2023/07/29 12:30:12;;;;;;;;;;;22.70;76.90;;;;;;5028636;28;20451;-53
2023/07/29 12:32:44;;;;;;;;;;;22.80;77.00;;;;;;5029688;28;20022;-53
2023/07/29 12:35:09;;;;;;;;;;;22.80;76.70;;;;;;5029131;28;19960;-54
2023/07/29 12:37:35;;;;;;;;;;;22.70;76.80;;;;;;5029376;28;19924;-53
2023/07/29 12:40:01;;;;;;;;;;;22.70;76.70;;;;;;5012931;28;20277;-55
2023/07/29 12:42:26;;;;;;;;;;;22.70;76.50;;;;;;5032710;28;21045;-53
2023/07/29 12:44:51;;;;;;;;;;;22.60;76.70;;;;;;5030694;28;19920;-55
2023/07/29 12:47:17;;;;;;;;;;;22.70;76.50;;;;;;5031212;28;19915;-54
2023/07/29 12:49:42;;;;;;;;;;;22.60;76.10;;;;;;5036048;28;19971;-53
2023/07/29 12:52:08;;;;;;;;;;;22.60;75.80;;;;;;5031353;28;20336;-54
2023/07/29 12:54:33;;;;;;;;;;;22.60;76.10;;;;;;5035192;28;20019;-53
2023/07/29 12:56:59;;;;;;;;;;;22.70;75.90;;;;;;5034618;28;19916;-53
2023/07/29 12:59:24;;;;;;;;;;;22.70;75.60;;;;;;5031185;28;19932;-54
2023/07/29 13:01:49;;;;;;;;;;;22.70;75.30;;;;;;5034135;28;20254;-54
2023/07/29 13:04:15;;;;;;;;;;;22.80;75.10;;;;;;5037376;28;19917;-54
2023/07/29 13:06:40;;;;;;;;;;;22.80;74.70;;;;;;5054774;28;20000;-55
2023/07/29 13:09:06;;;;;;;;;;;22.90;74.70;;;;;;5046531;28;19924;-54
2023/07/29 13:11:34;;;;;;;;;;;22.90;74.10;;;;;;5033051;28;20000;-54
2023/07/29 13:14:00;;;;;;;;;;;22.90;74.60;;;;;;5031456;28;19913;-54
2023/07/29 13:16:26;;;;;;;;;;;22.90;74.10;;;;;;5034573;28;19909;-55
2023/07/29 13:18:51;;;;;;;;;;;22.90;73.90;;;;;;5034466;28;20011;-55
2023/07/29 13:21:17;;;;;;;;;;;22.90;73.80;;;;;;5032562;28;20083;-54
2023/07/29 13:23:42;;;;;;;;;;;22.90;73.90;;;;;;5033549;28;19913;-54
2023/07/29 13:26:08;;;;;;;;;;;22.80;73.60;;;;;;5032513;28;19928;-55
2023/07/29 13:28:33;;;;;;;;;;;22.80;73.90;;;;;;5031813;28;20127;-54
2023/07/29 13:30:59;;;;;;;;;;;22.80;73.70;;;;;;5033618;28;19920;-54
2023/07/29 13:33:24;;;;;;;;;;;22.80;73.50;;;;;;5053455;28;19966;-55
2023/07/29 13:35:50;;;;;;;;;;;22.80;73.40;;;;;;5054180;28;19909;-54
2023/07/29 13:38:16;;;;;;;;;;;22.80;73.30;;;;;;5040293;28;19913;-54
2023/07/29 13:40:41;;;;;;;;;;;22.80;73.20;;;;;;5036337;28;19996;-54
2023/07/29 13:43:07;;;;;;;;;;;22.90;73.10;;;;;;5040097;28;19919;-55
2023/07/29 13:45:33;;;;;;;;;;;22.90;72.90;;;;;;5031293;28;20564;-54
2023/07/29 13:47:58;;;;;;;;;;;22.90;73.10;;;;;;5033606;28;19971;-56
2023/07/29 13:50:24;;;;;;;;;;;22.90;72.90;;;;;;5033969;28;19917;-56
2023/07/29 13:52:49;;;;;;;;;;;22.80;72.70;;;;;;5033882;28;19959;-56
2023/07/29 13:55:15;;;;;;;;;;;22.90;72.90;;;;;;5033612;28;19909;-55
2023/07/29 13:57:40;;;;;;;;;;;22.90;72.70;;;;;;5030515;28;19917;-55
2023/07/29 14:00:07;;;;;;;;;;;23.00;72.70;;;;;;5033199;28;19914;-54
2023/07/29 14:02:32;;;;;;;;;;;22.90;72.40;;;;;;5033330;28;19932;-54
2023/07/29 14:04:58;;;;;;;;;;;22.90;72.60;;;;;;5035678;28;19917;-55
2023/07/29 14:07:23;;;;;;;;;;;22.90;72.40;;;;;;5053039;28;20282;-54
2023/07/29 14:09:48;;;;;;;;;;;22.90;72.60;;;;;;5051717;28;20392;-54